Time;durP1;ratioP1;P1;durP2;ratioP2;P2;SDS_P1;SDS_P2;PMS_P1;PMS_P2;Temp;Humidity;BMP_temperature;BMP_pressure;BME280_temperature;BME280_humidity;BME280_pressure;Samples;Min_cycle;Max_cycle;Signal;HPM_P1;HPM_P2
2022/03/24 00:01:04;;;;;;;20.23;14.63;;;;;;;6.81;68.06;99236.50;4173246;28;20598;-84
2022/03/24 00:03:07;;;;;;;25.13;15.43;;;;;;;6.76;68.05;99235.84;4176976;28;20706;-84
2022/03/24 00:05:12;;;;;;;25.60;15.33;;;;;;;6.73;68.48;99233.34;4191055;28;20634;-84
2022/03/24 00:07:15;;;;;;;23.80;15.53;;;;;;;6.72;68.22;99227.31;4173859;28;20637;-84
2022/03/24 00:09:18;;;;;;;21.13;14.43;;;;;;;6.69;67.32;99224.84;4175080;28;20625;-84
2022/03/24 00:11:21;;;;;;;21.27;14.93;;;;;;;6.70;67.89;99221.31;4172336;28;20214;-84
2022/03/24 00:13:25;;;;;;;19.88;14.63;;;;;;;6.73;67.82;99225.56;4185722;28;20668;-84
2022/03/24 00:15:28;;;;;;;19.88;14.23;;;;;;;6.74;68.53;99227.28;4191075;28;20225;-84
2022/03/24 00:17:33;;;;;;;18.25;13.18;;;;;;;6.72;68.49;99229.06;4170133;28;20309;-84
2022/03/24 00:19:36;;;;;;;17.38;12.77;;;;;;;6.71;68.99;99225.63;4171753;28;20214;-84
2022/03/24 00:21:39;;;;;;;18.75;13.20;;;;;;;6.66;68.56;99227.53;4186045;28;20797;-84
2022/03/24 00:23:43;;;;;;;18.90;13.70;;;;;;;6.61;68.95;99231.19;4193655;28;20249;-84
2022/03/24 00:25:46;;;;;;;18.02;13.25;;;;;;;6.56;68.62;99223.56;4172665;28;20270;-84
2022/03/24 00:27:49;;;;;;;19.88;13.65;;;;;;;6.52;69.04;99210.75;4189654;28;20205;-84
2022/03/24 00:29:52;;;;;;;16.25;12.25;;;;;;;6.50;68.95;99214.31;4172280;28;20205;-84
2022/03/24 00:31:55;;;;;;;16.92;12.57;;;;;;;6.45;69.78;99218.78;4172931;28;20238;-84
2022/03/24 00:34:00;;;;;;;18.08;12.32;;;;;;;6.42;69.24;99209.41;4176212;28;20246;-84
2022/03/24 00:36:04;;;;;;;17.27;12.52;;;;;;;6.41;69.73;99210.28;4189374;28;20315;-84
2022/03/24 00:38:07;;;;;;;16.53;12.47;;;;;;;6.39;69.07;99214.69;4173734;28;20202;-84
2022/03/24 00:40:16;;;;;;;18.80;12.90;;;;;;;6.37;69.39;99215.63;4172792;28;20636;-84
2022/03/24 00:42:21;;;;;;;19.10;12.83;;;;;;;6.34;68.99;99208.78;4175001;28;20206;-84
2022/03/24 00:44:24;;;;;;;17.65;12.55;;;;;;;6.32;69.66;99208.00;4191231;28;21226;-84
2022/03/24 00:46:28;;;;;;;17.80;12.38;;;;;;;6.31;69.24;99206.31;4190954;28;20588;-84
2022/03/24 00:48:31;;;;;;;17.83;12.27;;;;;;;6.30;69.04;99203.78;4188878;28;20210;-84
2022/03/24 00:50:36;;;;;;;22.70;13.85;;;;;;;6.29;69.35;99204.69;4185850;28;20267;-84
2022/03/24 00:52:42;;;;;;;17.67;13.43;;;;;;;6.28;69.12;99198.63;4186228;28;20248;-84
2022/03/24 00:54:45;;;;;;;17.77;12.65;;;;;;;6.23;69.35;99197.13;4206736;28;20628;-84
2022/03/24 00:56:50;;;;;;;16.80;12.15;;;;;;;6.19;69.92;99198.97;4207676;28;20251;-84
2022/03/24 00:58:53;;;;;;;19.90;13.02;;;;;;;6.15;69.54;99191.34;4183253;28;20198;-84
2022/03/24 01:00:56;;;;;;;19.27;13.27;;;;;;;6.09;70.43;99195.00;4193367;28;20540;-84
2022/03/24 01:02:59;;;;;;;19.67;13.43;;;;;;;6.08;70.26;99198.47;4190138;28;20666;-85
2022/03/24 01:05:03;;;;;;;18.70;12.95;;;;;;;6.06;70.22;99203.75;4174604;28;20299;-84
2022/03/24 01:07:08;;;;;;;17.13;12.70;;;;;;;6.06;70.58;99203.75;4189498;28;20186;-84
2022/03/24 01:09:11;;;;;;;16.05;12.63;;;;;;;6.07;69.37;99187.31;4175983;28;20238;-84
2022/03/24 01:11:14;;;;;;;20.23;12.55;;;;;;;6.05;70.43;99196.88;4172042;28;20207;-84
2022/03/24 01:13:18;;;;;;;21.52;12.35;;;;;;;6.01;69.65;99196.13;4175559;28;20506;-84
2022/03/24 01:15:22;;;;;;;19.30;13.00;;;;;;;5.99;69.75;99199.69;4183408;28;20766;-84
2022/03/24 01:17:26;;;;;;;19.00;12.73;;;;;;;5.95;69.94;99198.91;4173294;28;20303;-84
2022/03/24 01:19:29;;;;;;;16.83;12.18;;;;;;;5.93;70.02;99197.28;4175210;28;20215;-84
2022/03/24 01:21:33;;;;;;;20.20;13.07;;;;;;;5.90;70.10;99190.47;4192713;28;20232;-84
2022/03/24 01:23:37;;;;;;;16.27;12.45;;;;;;;5.91;69.60;99197.34;4192658;28;20209;-83
2022/03/24 01:25:42;;;;;;;19.23;13.48;;;;;;;5.90;70.37;99194.81;4194978;28;20214;-84
2022/03/24 01:27:45;;;;;;;18.38;12.48;;;;;;;5.85;70.29;99187.19;4195643;28;20253;-84
2022/03/24 01:29:49;;;;;;;17.77;12.60;;;;;;;5.84;70.08;99192.41;4195241;28;20196;-84
2022/03/24 01:31:53;;;;;;;18.40;12.27;;;;;;;5.83;70.38;99193.28;4195463;28;20255;-84
2022/03/24 01:33:56;;;;;;;17.35;12.50;;;;;;;5.83;70.19;99195.88;4179308;28;20219;-84
2022/03/24 01:35:59;;;;;;;16.58;11.93;;;;;;;5.84;70.89;99187.22;4193412;28;20248;-84
2022/03/24 01:38:03;;;;;;;16.95;11.32;;;;;;;5.82;69.51;99189.03;4195758;28;20207;-84
2022/03/24 01:40:10;;;;;;;17.13;12.18;;;;;;;5.76;70.33;99181.47;4176629;28;20233;-84
2022/03/24 01:42:16;;;;;;;17.27;11.70;;;;;;;5.69;70.46;99185.94;4169302;28;20259;-84
2022/03/24 01:44:21;;;;;;;17.30;12.23;;;;;;;5.64;69.92;99181.81;4193569;28;20268;-84
2022/03/24 01:46:24;;;;;;;17.08;12.50;;;;;;;5.55;69.40;99179.50;4174949;28;20650;-84
2022/03/24 01:48:27;;;;;;;17.90;13.10;;;;;;;5.45;70.00;99178.09;4194142;28;20565;-84
2022/03/24 01:50:30;;;;;;;17.05;13.50;;;;;;;5.34;70.94;99172.41;4179850;28;20217;-84
2022/03/24 01:52:34;;;;;;;17.15;12.90;;;;;;;5.30;71.06;99178.56;4193885;28;20198;-84
2022/03/24 01:54:38;;;;;;;15.15;11.90;;;;;;;5.29;70.18;99171.72;4193144;28;20200;-84
2022/03/24 01:56:43;;;;;;;17.13;12.20;;;;;;;5.32;70.32;99173.34;4174059;28;20230;-84
2022/03/24 01:58:47;;;;;;;18.60;11.45;;;;;;;5.35;70.06;99181.00;4192215;28;20260;-84
2022/03/24 02:00:51;;;;;;;16.73;11.90;;;;;;;5.39;70.59;99178.28;4173543;28;20214;-84
2022/03/24 02:02:59;;;;;;;15.50;11.88;;;;;;;5.36;70.98;99168.03;4179352;28;20230;-85
2022/03/24 02:05:02;;;;;;;27.23;12.73;;;;;;;5.36;70.86;99173.19;4195734;28;20225;-84
2022/03/24 02:07:09;;;;;;;20.35;13.27;;;;;;;5.34;71.20;99172.41;4192846;28;20288;-84
2022/03/24 02:09:13;;;;;;;17.42;12.80;;;;;;;5.42;71.03;99167.00;4192473;28;20212;-84
2022/03/24 02:11:16;;;;;;;16.45;12.75;;;;;;;5.43;70.91;99168.72;4169529;28;20205;-84
2022/03/24 02:13:23;;;;;;;19.65;13.13;;;;;;;5.45;71.28;99172.09;4192119;28;20226;-84
2022/03/24 02:15:27;;;;;;;19.00;12.93;;;;;;;5.46;70.68;99173.75;4174812;28;20198;-84
2022/03/24 02:17:30;;;;;;;19.25;12.55;;;;;;;5.41;70.85;99171.34;4188582;28;20214;-84
2022/03/24 02:19:36;;;;;;;16.48;13.07;;;;;;;5.36;71.37;99156.84;4193917;28;20202;-84
2022/03/24 02:21:40;;;;;;;19.83;12.40;;;;;;;5.31;70.56;99169.91;4192060;28;20634;-84
2022/03/24 02:23:45;;;;;;;20.00;13.13;;;;;;;5.29;70.83;99165.66;4174385;28;20241;-84
2022/03/24 02:25:49;;;;;;;16.00;13.30;;;;;;;5.23;71.19;99165.84;4193336;28;20778;-84
2022/03/24 02:27:54;;;;;;;20.02;13.52;;;;;;;5.16;70.51;99164.38;4190574;28;20194;-84
2022/03/24 02:29:58;;;;;;;18.33;12.65;;;;;;;5.10;71.72;99161.09;4180042;28;20253;-84
2022/03/24 02:32:02;;;;;;;16.92;12.38;;;;;;;5.03;71.42;99157.84;4193081;28;20255;-84
2022/03/24 02:36:26;;;;;;;18.90;12.25;;;;;;;4.93;72.02;99161.63;4191115;28;20201;-84
2022/03/24 02:38:29;;;;;;;17.52;12.40;;;;;;;4.90;71.42;99158.25;4193243;28;20258;-84
2022/03/24 02:40:34;;;;;;;20.23;13.95;;;;;;;4.92;73.03;99164.25;4190775;28;20202;-84
2022/03/24 02:42:38;;;;;;;20.08;14.32;;;;;;;4.88;73.03;99166.06;4194282;28;20201;-84
2022/03/24 02:44:41;;;;;;;19.23;12.95;;;;;;;4.85;72.44;99166.13;4187083;28;20217;-84
2022/03/24 02:46:46;;;;;;;18.30;13.88;;;;;;;4.83;72.65;99164.50;4192011;28;20224;-84
2022/03/24 02:48:49;;;;;;;15.38;11.40;;;;;;;4.82;73.03;99163.63;4189271;28;20287;-84
2022/03/24 02:50:53;;;;;;;20.65;13.00;;;;;;;4.82;72.62;99155.06;4187897;28;20199;-84
2022/03/24 02:52:56;;;;;;;18.50;12.73;;;;;;;4.81;72.27;99150.75;4209836;28;20576;-84
2022/03/24 02:54:59;;;;;;;19.58;12.75;;;;;;;4.79;72.63;99153.38;4205907;28;20255;-84
2022/03/24 02:57:04;;;;;;;17.08;12.25;;;;;;;4.78;72.28;99158.59;4174456;28;20203;-84
2022/03/24 02:59:07;;;;;;;20.95;12.82;;;;;;;4.75;73.48;99151.81;4178285;28;20195;-84
2022/03/24 03:01:11;;;;;;;17.17;12.38;;;;;;;4.76;72.34;99153.47;4172013;28;20253;-84
2022/03/24 03:03:14;;;;;;;18.30;12.10;;;;;;;4.76;73.69;99157.81;4193141;28;20707;-84
2022/03/24 03:05:17;;;;;;;18.88;12.32;;;;;;;4.76;72.96;99162.97;4174538;28;20213;-84
2022/03/24 03:07:21;;;;;;;16.92;11.57;;;;;;;4.76;73.74;99161.22;4176800;28;20681;-84
2022/03/24 03:09:24;;;;;;;17.65;12.60;;;;;;;4.74;73.75;99163.03;4175999;28;20226;-84
2022/03/24 03:11:27;;;;;;;17.13;11.75;;;;;;;4.74;73.16;99167.34;4192428;28;20208;-84
2022/03/24 03:13:34;;;;;;;20.60;12.10;;;;;;;4.72;72.78;99164.81;4191163;28;20209;-84
2022/03/24 03:15:37;;;;;;;21.10;11.68;;;;;;;4.72;73.24;99167.38;4191236;28;20209;-84
2022/03/24 03:17:41;;;;;;;19.23;12.80;;;;;;;4.71;73.28;99164.84;4177498;28;20318;-84
2022/03/24 03:19:45;;;;;;;17.95;12.00;;;;;;;4.72;72.88;99172.56;4189382;28;20205;-84
2022/03/24 03:21:49;;;;;;;16.98;12.02;;;;;;;4.71;72.46;99180.34;4175484;28;20233;-84
2022/03/24 03:23:52;;;;;;;17.90;12.10;;;;;;;4.68;73.35;99175.28;4176648;28;20220;-84
2022/03/24 03:25:56;;;;;;;19.63;12.93;;;;;;;4.66;73.54;99176.19;4170239;28;20206;-84
2022/03/24 03:27:59;;;;;;;20.50;12.90;;;;;;;4.63;72.47;99171.09;4190881;28;20658;-84
2022/03/24 03:30:05;;;;;;;18.23;12.10;;;;;;;4.62;73.50;99172.84;4185364;28;20773;-83
2022/03/24 03:32:09;;;;;;;17.27;11.80;;;;;;;4.61;72.45;99172.91;4190809;28;20255;-84
2022/03/24 03:34:12;;;;;;;20.13;11.85;;;;;;;4.62;72.87;99185.78;4171300;28;20211;-84
2022/03/24 03:36:15;;;;;;;17.60;12.95;;;;;;;4.65;72.95;99184.84;4176944;28;20206;-84
2022/03/24 03:38:19;;;;;;;19.30;12.77;;;;;;;4.63;72.87;99181.44;4175709;28;20296;-84
2022/03/24 03:40:22;;;;;;;18.83;13.05;;;;;;;4.62;72.78;99177.19;4189260;28;20635;-83
2022/03/24 03:42:25;;;;;;;17.98;12.52;;;;;;;4.60;73.33;99182.41;4175212;28;20210;-84
2022/03/24 03:44:28;;;;;;;19.45;13.23;;;;;;;4.57;73.79;99177.31;4173617;28;20603;-84
2022/03/24 03:46:33;;;;;;;18.38;12.50;;;;;;;4.54;73.43;99185.13;4176062;28;20244;-84
2022/03/24 03:48:36;;;;;;;18.73;12.77;;;;;;;4.53;73.81;99178.28;4170034;28;20209;-84
2022/03/24 03:50:40;;;;;;;17.38;12.07;;;;;;;4.49;74.24;99183.56;4175878;28;20206;-83
2022/03/24 03:52:43;;;;;;;22.02;13.60;;;;;;;4.51;73.42;99176.59;4190609;28;20208;-84
2022/03/24 03:54:46;;;;;;;18.67;11.68;;;;;;;4.52;73.11;99180.91;4177253;28;20206;-84
2022/03/24 03:56:49;;;;;;;18.85;12.50;;;;;;;4.49;73.59;99184.41;4190768;28;20201;-84
2022/03/24 03:58:53;;;;;;;18.48;12.50;;;;;;;4.50;73.83;99187.84;4190865;28;20721;-84
2022/03/24 04:00:58;;;;;;;22.67;13.02;;;;;;;4.54;73.63;99185.13;4189246;28;20209;-84
2022/03/24 04:03:04;;;;;;;19.65;11.80;;;;;;;4.51;73.43;99179.19;4190280;28;20232;-84
2022/03/24 04:05:08;;;;;;;17.92;11.93;;;;;;;4.45;72.80;99180.22;4192872;28;20217;-84
2022/03/24 04:07:11;;;;;;;18.75;11.80;;;;;;;4.39;73.60;99176.94;4172527;28;20206;-84
2022/03/24 04:09:14;;;;;;;18.17;12.13;;;;;;;4.38;72.78;99175.25;4190789;28;20207;-84
2022/03/24 04:11:17;;;;;;;17.13;12.43;;;;;;;4.40;73.18;99181.22;4188180;28;20213;-84
2022/03/24 04:13:21;;;;;;;18.50;12.48;;;;;;;4.36;72.49;99183.03;4182075;28;20198;-84
2022/03/24 04:15:25;;;;;;;18.73;13.10;;;;;;;4.34;72.80;99174.47;4194324;28;20205;-84
2022/03/24 04:17:28;;;;;;;20.75;12.52;;;;;;;4.35;73.41;99181.34;4169567;28;20281;-84
2022/03/24 04:19:32;;;;;;;19.23;12.25;;;;;;;4.35;74.14;99181.34;4189982;28;20766;-84
2022/03/24 04:21:36;;;;;;;19.30;13.32;;;;;;;4.33;73.24;99182.25;4204995;28;20274;-83
2022/03/24 04:23:40;;;;;;;18.00;12.50;;;;;;;4.32;73.31;99183.16;4188404;28;20701;-84
2022/03/24 04:25:45;;;;;;;18.92;11.63;;;;;;;4.33;73.42;99182.25;4174965;28;20206;-84
2022/03/24 04:27:49;;;;;;;17.00;11.90;;;;;;;4.30;73.93;99183.22;4188945;28;20212;-84
2022/03/24 04:29:52;;;;;;;18.95;12.60;;;;;;;4.27;73.79;99178.13;4172332;28;20209;-84
2022/03/24 04:31:55;;;;;;;18.13;12.80;;;;;;;4.27;73.71;99185.03;4191716;28;20239;-83
2022/03/24 04:33:59;;;;;;;22.08;12.60;;;;;;;4.26;73.43;99184.16;4184641;28;20213;-84
2022/03/24 04:36:07;;;;;;;20.08;13.40;;;;;;;4.20;73.99;99185.22;4170932;28;20197;-84
2022/03/24 04:38:11;;;;;;;18.48;12.68;;;;;;;4.12;73.75;99188.00;4200371;28;20208;-84
2022/03/24 04:40:16;;;;;;;18.83;13.15;;;;;;;4.04;74.01;99189.91;4173798;28;20692;-84
2022/03/24 04:42:19;;;;;;;17.30;11.73;;;;;;;4.02;74.54;99198.59;4191331;28;20656;-84
2022/03/24 04:44:22;;;;;;;19.77;12.77;;;;;;;4.01;73.96;99189.97;4189013;28;20219;-84
2022/03/24 04:46:25;;;;;;;19.10;12.30;;;;;;;4.03;73.75;99195.09;4177074;28;20216;-84
2022/03/24 04:48:35;;;;;;;24.80;12.60;;;;;;;4.03;74.78;99189.94;4191362;28;20266;-84
2022/03/24 04:50:39;;;;;;;18.38;12.20;;;;;;;4.04;74.30;99205.38;4187879;28;20251;-84
2022/03/24 04:52:47;;;;;;;19.10;12.82;;;;;;;4.06;74.25;99198.47;4188562;28;20209;-84
2022/03/24 04:54:53;;;;;;;18.40;12.18;;;;;;;4.05;73.85;99203.69;4188068;28;20287;-84
2022/03/24 04:56:57;;;;;;;18.70;12.00;;;;;;;4.05;73.70;99206.25;4190884;28;20210;-84
2022/03/24 04:59:00;;;;;;;19.90;12.73;;;;;;;4.00;73.57;99206.38;4174396;28;20901;-84
2022/03/24 05:01:03;;;;;;;15.57;12.20;;;;;;;3.94;74.13;99203.94;4170833;28;20213;-84
2022/03/24 05:03:06;;;;;;;17.40;12.25;;;;;;;3.91;75.06;99205.72;4193211;28;20721;-84
2022/03/24 05:05:11;;;;;;;19.42;13.35;;;;;;;3.92;75.23;99204.84;4173962;28;20216;-84
2022/03/24 05:07:14;;;;;;;18.15;12.10;;;;;;;3.88;75.40;99204.09;4190801;28;20204;-84
2022/03/24 05:09:18;;;;;;;18.95;12.93;;;;;;;3.88;75.34;99204.09;4176732;28;20213;-84
2022/03/24 05:11:24;;;;;;;19.23;13.27;;;;;;;3.89;74.91;99207.50;4192047;28;20263;-84
2022/03/24 05:13:29;;;;;;;17.20;12.15;;;;;;;3.90;74.98;99201.47;4175119;28;20207;-84
2022/03/24 05:15:32;;;;;;;16.75;11.75;;;;;;;3.90;74.87;99201.47;4172649;28;20204;-84
2022/03/24 05:17:35;;;;;;;21.63;13.85;;;;;;;3.89;74.91;99207.50;4173273;28;20263;-84
2022/03/24 05:19:39;;;;;;;17.98;12.90;;;;;;;3.88;75.08;99206.66;4189495;28;20220;-84
2022/03/24 05:21:42;;;;;;;18.88;12.60;;;;;;;3.85;74.90;99206.75;4183306;28;20313;-84
2022/03/24 05:23:45;;;;;;;17.55;12.38;;;;;;;3.86;75.29;99215.31;4174921;28;20211;-84
2022/03/24 05:25:50;;;;;;;20.55;13.60;;;;;;;3.85;75.25;99201.59;4191169;28;20307;-84
2022/03/24 05:27:53;;;;;;;17.58;12.25;;;;;;;3.86;75.26;99202.41;4175057;28;20262;-84
2022/03/24 05:29:56;;;;;;;19.90;13.00;;;;;;;3.85;75.39;99211.06;4189846;28;20199;-84
2022/03/24 05:31:59;;;;;;;18.85;12.30;;;;;;;3.85;75.68;99211.91;4187489;28;20254;-84
2022/03/24 05:34:02;;;;;;;21.23;14.02;;;;;;;3.84;75.02;99206.78;4190380;28;20213;-84
2022/03/24 05:36:09;;;;;;;21.10;14.10;;;;;;;3.84;75.08;99206.78;4192625;28;20305;-90
2022/03/24 05:38:13;;;;;;;20.45;13.65;;;;;;;3.90;75.50;99209.22;4190328;28;20199;-86
2022/03/24 05:40:16;;;;;;;20.17;13.45;;;;;;;3.99;75.21;99211.56;4192632;28;20232;-86
2022/03/24 05:42:21;;;;;;;22.20;13.82;;;;;;;4.09;75.36;99213.00;4186299;28;20214;-87
2022/03/24 05:44:24;;;;;;;19.17;12.70;;;;;;;4.20;75.06;99206.72;4189102;28;20688;-87
2022/03/24 05:46:27;;;;;;;20.17;13.80;;;;;;;4.32;75.13;99212.41;4174249;28;20207;-87
2022/03/24 05:48:32;;;;;;;24.58;14.07;;;;;;;4.42;74.90;99210.41;4190062;28;20196;-87
2022/03/24 05:50:55;;;;;;;20.50;13.95;;;;;;;4.53;74.30;99206.69;4189457;28;20276;-87
2022/03/24 05:53:06;;;;;;;22.50;14.13;;;;;;;4.62;73.42;99206.44;4171572;28;20668;-87
2022/03/24 05:55:10;;;;;;;24.00;16.15;;;;;;;4.72;74.40;99205.28;4173985;28;20225;-86
2022/03/24 05:57:13;;;;;;;20.02;14.30;;;;;;;4.83;73.40;99214.44;4177671;28;20202;-86
2022/03/24 05:59:18;;;;;;;22.42;14.57;;;;;;;4.99;73.15;99212.25;4170406;28;20661;-86
2022/03/24 06:01:23;;;;;;;20.73;14.60;;;;;;;5.13;72.21;99216.16;4186334;28;20209;-86
2022/03/24 06:03:29;;;;;;;21.70;14.88;;;;;;;5.27;71.79;99214.84;4203691;28;20197;-86
2022/03/24 06:05:33;;;;;;;25.95;14.38;;;;;;;5.40;70.70;99211.00;4187448;28;20205;-87
2022/03/24 06:07:36;;;;;;;26.85;14.93;;;;;;;5.54;71.89;99215.78;4185511;28;20301;-86
2022/03/24 06:09:39;;;;;;;23.35;14.40;;;;;;;5.68;71.07;99217.03;4202252;28;20606;-86
2022/03/24 06:11:42;;;;;;;25.27;14.32;;;;;;;5.83;71.38;99216.59;4184848;28;20271;-86
2022/03/24 06:13:46;;;;;;;26.55;14.57;;;;;;;5.97;70.06;99216.97;4180474;28;20585;-86
2022/03/24 06:15:51;;;;;;;25.42;15.18;;;;;;;6.09;69.43;99218.28;4187561;28;20235;-86
2022/03/24 06:17:54;;;;;;;23.35;14.73;;;;;;;6.23;70.12;99217.84;4189773;28;20210;-86
2022/03/24 06:19:58;;;;;;;24.73;14.35;;;;;;;6.37;69.47;99229.41;4191173;28;20272;-86
2022/03/24 06:22:02;;;;;;;25.60;15.02;;;;;;;6.51;68.25;99219.47;4176571;28;20317;-86
2022/03/24 06:24:07;;;;;;;20.55;13.98;;;;;;;6.64;67.60;99231.06;4175873;28;20709;-86
2022/03/24 06:26:10;;;;;;;20.75;14.65;;;;;;;6.78;67.74;99229.72;4178497;28;20213;-86
2022/03/24 06:28:13;;;;;;;21.90;14.65;;;;;;;6.91;67.52;99235.28;4187843;28;20218;-87
2022/03/24 06:30:17;;;;;;;24.17;14.93;;;;;;;7.08;67.10;99241.56;4189120;28;20674;-87
2022/03/24 06:32:21;;;;;;;20.52;14.65;;;;;;;7.19;66.55;99227.31;4202630;28;20229;-87
2022/03/24 06:34:25;;;;;;;21.60;14.07;;;;;;;7.33;66.61;99235.41;4192430;28;20295;-86
2022/03/24 06:36:28;;;;;;;22.80;14.65;;;;;;;7.47;67.14;99227.94;4171453;28;20210;-86
2022/03/24 06:38:31;;;;;;;21.77;14.48;;;;;;;7.60;66.62;99236.97;4195645;28;20263;-87
2022/03/24 06:40:34;;;;;;;24.65;15.50;;;;;;;7.72;66.25;99231.31;4167063;28;20237;-87
2022/03/24 06:42:38;;;;;;;30.30;16.67;;;;;;;7.83;65.27;99234.31;4173174;28;20945;-87
2022/03/24 06:44:41;;;;;;;27.55;18.10;;;;;;;7.92;65.14;99236.56;4189671;28;20711;-85
2022/03/24 06:46:45;;;;;;;29.95;17.40;;;;;;;8.03;66.16;99238.69;4193034;28;20206;-86
2022/03/24 06:48:50;;;;;;;27.40;16.20;;;;;;;8.17;64.30;99232.97;4197517;28;20251;-84
2022/03/24 06:50:53;;;;;;;25.10;17.13;;;;;;;8.30;64.65;99242.81;4182163;28;20262;-87
2022/03/24 06:52:56;;;;;;;25.13;16.77;;;;;;;8.43;64.40;99241.38;4170485;28;20257;-86
2022/03/24 06:54:59;;;;;;;27.58;17.70;;;;;;;8.57;64.78;99239.06;4173450;28;20210;-85
2022/03/24 06:57:02;;;;;;;22.77;17.38;;;;;;;8.76;64.13;99245.16;4173461;28;20257;-83
2022/03/24 06:59:05;;;;;;;22.35;15.52;;;;;;;8.91;64.20;99245.34;4188575;28;20543;-84
2022/03/24 07:01:11;;;;;;;23.52;17.05;;;;;;;9.10;65.65;99251.44;4189319;28;20732;-84
2022/03/24 07:03:15;;;;;;;20.77;16.17;;;;;;;9.25;63.96;99248.16;4188028;28;20272;-84
2022/03/24 07:05:19;;;;;;;25.00;16.73;;;;;;;9.37;63.44;99245.00;4191548;28;20207;-83
2022/03/24 07:07:22;;;;;;;22.33;16.03;;;;;;;9.52;63.87;99250.38;4183110;28;20631;-84
2022/03/24 07:09:26;;;;;;;24.27;16.00;;;;;;;9.69;63.19;99253.03;4171526;28;20640;-85
2022/03/24 07:11:29;;;;;;;29.37;22.07;;;;;;;9.83;64.31;99253.25;4191788;28;21214;-85
2022/03/24 07:13:33;;;;;;;23.03;16.33;;;;;;;9.98;63.15;99250.78;4181450;28;20688;-85
2022/03/24 07:15:41;;;;;;;24.03;14.60;;;;;;;10.06;64.30;99257.31;4168659;28;20762;-85
2022/03/24 07:17:44;;;;;;;21.10;16.37;;;;;;;10.26;64.27;99246.78;4187020;28;20658;-86
2022/03/24 07:19:47;;;;;;;20.70;16.07;;;;;;;10.46;63.29;99244.91;4169112;28;20629;-88
2022/03/24 07:21:52;;;;;;;23.23;15.90;;;;;;;10.65;63.00;99250.03;4166999;28;20676;-87
2022/03/24 07:23:59;;;;;;;21.30;16.13;;;;;;;10.80;62.38;99249.28;4178750;28;21052;-86
2022/03/24 07:26:02;;;;;;;23.00;16.50;;;;;;;10.96;62.28;99257.09;4179940;28;20648;-87
2022/03/24 07:28:06;;;;;;;21.60;16.20;;;;;;;11.17;62.32;99252.50;4177699;28;20730;-87
2022/03/24 07:30:10;;;;;;;22.73;16.30;;;;;;;11.38;62.84;99257.44;4188448;28;20638;-87
2022/03/24 07:32:13;;;;;;;31.80;24.80;;;;;;;11.56;61.73;99256.50;4175464;28;20632;-88
2022/03/24 07:34:17;;;;;;;31.80;24.20;;;;;;;11.68;60.15;99256.69;4207095;28;20650;-87
2022/03/24 07:36:22;;;;;;;32.93;24.20;;;;;;;11.84;61.24;99254.94;4211467;28;20636;-87
2022/03/24 07:38:26;;;;;;;38.73;26.67;;;;;;;11.96;60.47;99252.47;4209847;28;20643;-87
2022/03/24 07:40:30;;;;;;;34.83;24.60;;;;;;;12.05;60.62;99254.56;4180768;28;20650;-87
2022/03/24 07:42:33;;;;;;;32.50;23.10;;;;;;;12.19;59.57;99254.66;4178217;28;20623;-87
2022/03/24 07:44:36;;;;;;;25.53;18.97;;;;;;;12.20;57.05;99251.13;4187390;28;21270;-88
2022/03/24 07:46:41;;;;;;;26.90;19.37;;;;;;;12.30;59.74;99255.75;4174227;28;20624;-87
2022/03/24 07:48:46;;;;;;;22.47;18.00;;;;;;;12.35;58.59;99260.72;4178499;28;20632;-87
2022/03/24 07:50:49;;;;;;;25.73;16.80;;;;;;;12.57;60.21;99266.38;4179922;28;20635;-87
2022/03/24 07:52:53;;;;;;;23.00;17.40;;;;;;;12.72;59.58;99267.22;4174881;28;20632;-87
2022/03/24 07:55:06;;;;;;;22.10;17.23;;;;;;;12.83;58.67;99262.22;4194736;28;20633;-87
2022/03/24 07:57:09;;;;;;;22.00;17.50;;;;;;;13.04;60.17;99274.03;4190516;28;20712;-87
2022/03/24 07:59:15;;;;;;;22.90;17.60;;;;;;;13.24;58.80;99268.47;4175459;28;20631;-87
2022/03/24 08:01:26;;;;;;;21.70;16.87;;;;;;;13.43;58.37;99269.88;4178972;28;20645;-87
2022/03/24 08:03:30;;;;;;;19.93;15.43;;;;;;;13.59;57.60;99270.63;4176852;28;20973;-88
2022/03/24 08:05:33;;;;;;;21.30;15.63;;;;;;;13.79;53.77;99263.22;4186828;28;20663;-87
2022/03/24 08:07:36;;;;;;;24.83;16.47;;;;;;;13.97;53.90;99264.69;4176058;28;20628;-87
2022/03/24 08:09:39;;;;;;;22.73;15.93;;;;;;;14.11;52.87;99272.53;4171900;28;21026;-87
2022/03/24 08:11:45;;;;;;;26.57;17.30;;;;;;;14.27;55.89;99268.00;4187693;28;20730;-88
2022/03/24 08:13:52;;;;;;;22.07;16.70;;;;;;;14.44;56.91;99268.59;4192662;28;20637;-88
2022/03/24 08:15:56;;;;;;;22.63;18.27;;;;;;;14.60;56.64;99270.13;4175751;28;20734;-87
2022/03/24 08:18:00;;;;;;;23.60;16.60;;;;;;;14.78;55.97;99279.41;4191981;28;20684;-87
2022/03/24 08:20:03;;;;;;;19.50;15.90;;;;;;;14.89;55.18;99281.34;4189931;28;20689;-87
2022/03/24 08:22:07;;;;;;;20.33;17.07;;;;;;;15.00;55.14;99284.91;4191333;28;20711;-87
2022/03/24 08:24:10;;;;;;;24.40;17.80;;;;;;;15.08;53.48;99277.38;4192729;28;20643;-87
2022/03/24 08:26:14;;;;;;;23.10;17.43;;;;;;;15.14;52.55;99277.81;4181850;28;21193;-87
2022/03/24 08:28:18;;;;;;;24.33;18.20;;;;;;;15.22;53.51;99275.53;4184462;28;20652;-84
2022/03/24 08:30:22;;;;;;;21.93;17.10;;;;;;;15.31;51.69;99274.91;4183109;28;21229;-85
2022/03/24 08:32:25;;;;;;;21.73;16.70;;;;;;;15.45;52.27;99277.41;4171246;28;20636;-84
2022/03/24 08:34:28;;;;;;;22.53;17.10;;;;;;;15.56;50.16;99281.00;4203039;28;20685;-84
2022/03/24 08:36:31;;;;;;;21.10;16.87;;;;;;;15.64;50.81;99277.84;4184244;28;20643;-85
2022/03/24 08:38:34;;;;;;;20.90;16.90;;;;;;;15.81;52.86;99275.69;4206415;28;20662;-82
2022/03/24 08:40:38;;;;;;;25.10;18.13;;;;;;;15.96;52.65;99271.97;4189809;28;20673;-83
2022/03/24 08:42:42;;;;;;;24.60;17.67;;;;;;;16.11;51.50;99274.34;4188644;28;20644;-84
2022/03/24 08:44:47;;;;;;;24.87;18.27;;;;;;;16.11;53.24;99273.53;4187238;28;20635;-84
2022/03/24 08:46:50;;;;;;;26.07;17.53;;;;;;;16.28;53.63;99265.28;4181388;28;21006;-84
2022/03/24 08:48:54;;;;;;;22.83;18.00;;;;;;;16.38;53.42;99264.50;4163689;28;20736;-88
2022/03/24 08:50:57;;;;;;;22.10;18.03;;;;;;;16.52;52.73;99270.47;4171995;28;20659;-87
2022/03/24 08:53:02;;;;;;;22.80;17.90;;;;;;;16.65;51.79;99271.22;4171906;28;20633;-88
2022/03/24 08:55:07;;;;;;;21.87;17.37;;;;;;;16.67;51.65;99265.84;4186658;28;20662;-88
2022/03/24 08:57:10;;;;;;;25.03;19.27;;;;;;;16.86;52.80;99267.00;4174625;28;20627;-86
2022/03/24 08:59:13;;;;;;;23.97;18.27;;;;;;;17.03;51.65;99266.56;4176492;28;21127;-86
2022/03/24 09:01:21;;;;;;;23.47;18.67;;;;;;;17.07;49.55;99268.03;4182796;28;20658;-86
2022/03/24 09:03:25;;;;;;;22.77;18.27;;;;;;;17.14;49.28;99271.88;4186385;28;20627;-87
2022/03/24 09:05:28;;;;;;;26.33;18.47;;;;;;;17.21;49.21;99263.41;4187972;28;21297;-87
2022/03/24 09:07:31;;;;;;;22.60;19.03;;;;;;;17.36;50.97;99269.31;4188190;28;20677;-87
2022/03/24 09:09:34;;;;;;;23.90;18.80;;;;;;;17.45;49.67;99266.81;4183902;28;21993;-87
2022/03/24 09:11:37;;;;;;;23.47;19.30;;;;;;;17.45;50.00;99271.25;4172206;28;20632;-87
2022/03/24 09:13:41;;;;;;;24.53;19.67;;;;;;;17.52;48.60;99271.50;4182140;28;20643;-87
2022/03/24 09:15:45;;;;;;;27.77;19.87;;;;;;;17.56;48.20;99262.38;4189166;28;20623;-87
2022/03/24 09:17:50;;;;;;;23.80;19.20;;;;;;;17.67;50.34;99266.84;4168183;28;20636;-86
2022/03/24 09:19:53;;;;;;;25.07;19.47;;;;;;;17.79;50.55;99268.50;4184854;28;20644;-87
2022/03/24 09:21:56;;;;;;;23.50;19.50;;;;;;;17.87;51.03;99266.94;4188249;28;20676;-87
2022/03/24 09:23:59;;;;;;;23.40;19.77;;;;;;;18.02;50.04;99261.28;4167810;28;20683;-87
2022/03/24 09:26:03;;;;;;;24.67;19.50;;;;;;;18.19;48.90;99271.38;4186360;28;21311;-88
2022/03/24 09:28:27;;;;;;;25.03;19.93;;;;;;;18.36;48.77;99262.94;4164250;28;20636;-86
2022/03/24 09:30:30;;;;;;;23.70;19.73;;;;;;;18.41;48.46;99265.22;4188192;28;20625;-88
2022/03/24 09:32:33;;;;;;;24.80;19.83;;;;;;;18.39;48.54;99261.84;4187756;28;20628;-88
2022/03/24 09:34:38;;;;;;;28.87;21.13;;;;;;;18.45;47.04;99257.75;4187862;28;20697;-86
2022/03/24 09:36:41;;;;;;;25.67;21.40;;;;;;;18.53;47.26;99260.59;4190523;28;20627;-86
2022/03/24 09:38:45;;;;;;;25.07;20.60;;;;;;;18.61;47.64;99271.41;4187369;28;20620;-87